Sencelles, Spain

3:34 AM CET on December 28, 2014 (GMT +0100)
IPMSENCE2 | Change Station
CLOSE
Current Station
Personal Weather Station
Location: Sencelles, Balearic Islands
Elevation: 394 ft
Nearby Weather Stations
Active Advisory: Wind

Elev 394 ft 39.65 °N, 2.90 °E | Updated 4 minutes ago

Partly Cloudy
Partly Cloudy
55.6 °F
Feels Like 55.6 °F
N
11.0
Wind Variable Wind from SW
Gusts 13.0 mph

Today
High -- | Low -- °F
--% Chance of Precip.
Yesterday
High -- | Low -- °F
Precip. -- in
8:08 AM 5:31 PM
Waxing Crescent, 42% visible
Pressure 29.74 in
Visibility 6.2 miles
Clouds Few 2500 ft
Dew Point 43 °F
Humidity 62%
Rainfall 0.00 in
Snow Depth Not available.
UV 0 out of 12
Pollen Not available.
Air Quality Not available.
Flu Activity Not available.
METAR LEPA 280200Z 25016KT 9999 FEW025 15/07 Q1007 NOSIG

More Conditions Fewer Conditions

Pressure 29.74 in
Visibility 6.2 miles
Clouds Few 2500 ft
Dew Point 43 °F
Humidity 62%
Rainfall 0.00 in
Snow Depth Not available.
UV 0 out of 12
Pollen Not available.
Air Quality Not available.
Flu Activity Not available.
METAR LEPA 280200Z 25016KT 9999 FEW025 15/07 Q1007 NOSIG

More Conditions Fewer Conditions

10-Day Weather Forecast

Almanac

Astronomy

Dec. 28, 2014 Rise Set
Actual Time
Civil Twilight
Nautical Twilight
Astronomical Twilight
Moon
Length of Visible Light
Length of Day
Tomorrow will be .
, % of the Moon is Illuminated

Today's Extremes

Country Highs Country Lows

Community

WunderPhotos

Upload Photos

1,781,143 photos uploaded!

WunderBlogs® & News

Nearby

Air Quality

  Air Quality AQ Index Pollutant
Not available.

Snow Depth

Station Depth Elevation

Earthquake Activity

City Distance Mag. Time & Date
Minimum magnitude displayed is 2.5.

Coastal Water Temperatures

Place Temperature

Nearby Weather Stations